Time;durP1;ratioP1;P1;durP2;ratioP2;P2;SDS_P1;SDS_P2;PMS_P1;PMS_P2;Temp;Humidity;BMP_temperature;BMP_pressure;BME280_temperature;BME280_humidity;BME280_pressure;Samples;Min_cycle;Max_cycle;Signal;HPM_P1;HPM_P2
2021/03/03 00:01:00;;;;;;;168.40;83.13;;;;;;;4.61;66.86;101802.50;4894164;28;100750;-75
2021/03/03 00:03:25;;;;;;;165.70;82.40;;;;;;;4.53;66.43;101797.19;4878066;28;97940;-79
2021/03/03 00:05:51;;;;;;;164.37;81.93;;;;;;;4.57;66.51;101804.19;4877659;28;96630;-75
2021/03/03 00:08:16;;;;;;;161.97;82.40;;;;;;;4.35;67.28;101792.59;4877966;28;96910;-75
2021/03/03 00:10:42;;;;;;;165.93;81.57;;;;;;;4.38;67.31;101797.84;4884079;28;97570;-74
2021/03/03 00:13:08;;;;;;;159.50;83.87;;;;;;;4.54;66.39;101801.56;4874718;28;101081;-77
2021/03/03 00:15:33;;;;;;;169.93;86.80;;;;;;;4.49;66.86;101805.81;4858411;28;97285;-77
2021/03/03 00:17:59;;;;;;;188.13;90.77;;;;;;;4.53;66.24;101794.59;4858776;28;96919;-74
2021/03/03 00:20:25;;;;;;;183.90;90.83;;;;;;;4.49;66.92;101792.81;4867868;28;98422;-80
2021/03/03 00:22:51;;;;;;;175.93;89.77;;;;;;;4.54;66.68;101796.34;4892211;28;97784;-74
2021/03/03 00:25:16;;;;;;;184.77;88.10;;;;;;;4.51;66.53;101791.13;4859226;28;97109;-76
2021/03/03 00:27:42;;;;;;;181.17;87.07;;;;;;;4.47;66.51;101797.09;4842457;28;97387;-75
2021/03/03 00:30:08;;;;;;;183.10;88.83;;;;;;;4.36;66.76;101796.94;4858351;28;101443;-77
2021/03/03 00:32:34;;;;;;;181.10;90.60;;;;;;;4.24;67.30;101796.75;4842347;28;101338;-74
2021/03/03 00:34:59;;;;;;;189.63;92.03;;;;;;;4.29;66.90;101801.19;4867856;28;97032;-75
2021/03/03 00:37:25;;;;;;;196.20;93.87;;;;;;;4.27;67.10;101789.88;4878096;28;96950;-80
2021/03/03 00:39:50;;;;;;;191.83;92.07;;;;;;;4.25;66.71;101788.13;4877270;28;100959;-75
2021/03/03 00:42:16;;;;;;;193.87;98.17;;;;;;;4.32;66.61;101790.81;4877781;28;97461;-75
2021/03/03 00:44:41;;;;;;;187.03;91.50;;;;;;;4.18;66.49;101787.13;4877919;28;97220;-75
2021/03/03 00:47:07;;;;;;;189.93;89.67;;;;;;;4.22;66.35;101786.34;4877838;28;97219;-77
2021/03/03 00:49:33;;;;;;;177.83;91.53;;;;;;;4.20;66.56;101782.84;4876789;28;101800;-75
2021/03/03 00:51:59;;;;;;;188.63;91.13;;;;;;;4.26;66.31;101780.34;4877467;28;100692;-75
2021/03/03 00:54:25;;;;;;;183.13;89.50;;;;;;;4.29;66.04;101782.09;4877124;28;96614;-80
2021/03/03 00:56:50;;;;;;;176.63;89.83;;;;;;;4.15;65.95;101775.81;4877566;28;96934;-75
2021/03/03 00:59:16;;;;;;;177.03;87.27;;;;;;;4.07;66.31;101787.00;4877039;28;101517;-75
2021/03/03 01:01:43;;;;;;;189.57;92.87;;;;;;;4.13;66.50;101782.72;4876627;28;101573;-75
2021/03/03 01:04:11;;;;;;;192.53;94.80;;;;;;;4.11;66.33;101774.03;4877878;28;96743;-75
2021/03/03 01:06:39;;;;;;;190.20;91.70;;;;;;;4.08;66.43;101780.06;4877243;28;97363;-75
2021/03/03 01:09:07;;;;;;;196.67;95.87;;;;;;;4.03;66.74;101773.91;4877648;28;97435;-75
2021/03/03 01:11:36;;;;;;;192.03;96.30;;;;;;;3.91;66.81;101777.19;4860916;28;101192;-75
2021/03/03 01:14:02;;;;;;;184.70;91.53;;;;;;;3.95;66.57;101770.31;4857686;28;97243;-75
2021/03/03 01:16:30;;;;;;;192.43;95.30;;;;;;;4.06;66.00;101769.63;4840108;28;96990;-76
2021/03/03 01:19:07;;;;;;;198.90;96.00;;;;;;;4.01;66.27;101776.47;4863725;28;101402;-75
2021/03/03 01:21:33;;;;;;;203.73;99.23;;;;;;;4.07;66.19;101781.78;4876609;28;97803;-76
2021/03/03 01:23:58;;;;;;;199.30;96.47;;;;;;;4.08;66.68;101773.13;4877395;28;96944;-75
2021/03/03 01:26:24;;;;;;;193.37;97.33;;;;;;;4.04;66.53;101773.94;4877361;28;97302;-75
2021/03/03 01:28:49;;;;;;;180.90;92.23;;;;;;;3.96;66.04;101769.47;4860298;28;101246;-75
2021/03/03 01:31:15;;;;;;;193.97;95.90;;;;;;;3.90;66.30;101766.75;4893071;28;97860;-75
2021/03/03 01:33:40;;;;;;;199.67;93.30;;;;;;;3.91;66.16;101769.38;4876881;28;97156;-75
2021/03/03 01:36:06;;;;;;;199.33;97.33;;;;;;;3.84;66.49;101763.22;4877574;28;97036;-75
2021/03/03 01:38:32;;;;;;;196.57;97.13;;;;;;;3.81;66.63;101765.78;4866958;28;101015;-78
2021/03/03 01:40:58;;;;;;;191.97;92.80;;;;;;;3.82;66.13;101758.84;4875559;28;101035;-74
2021/03/03 01:43:24;;;;;;;197.17;93.90;;;;;;;3.85;66.15;101756.31;4894079;28;97448;-75
2021/03/03 01:45:50;;;;;;;202.90;95.80;;;;;;;3.82;66.35;101749.34;4876148;28;97004;-75
2021/03/03 01:48:16;;;;;;;200.10;96.07;;;;;;;3.81;66.06;101751.88;4876464;28;99900;-75
2021/03/03 01:50:41;;;;;;;197.17;95.63;;;;;;;3.90;66.24;101756.34;4860234;28;101657;-75
2021/03/03 01:53:08;;;;;;;191.00;96.00;;;;;;;3.77;65.92;101750.97;4876983;28;97356;-75
2021/03/03 01:55:33;;;;;;;187.27;92.97;;;;;;;3.67;66.17;101756.00;4876211;28;96813;-76
2021/03/03 01:58:00;;;;;;;200.20;95.27;;;;;;;3.58;66.11;101748.94;4860644;28;101561;-75
2021/03/03 02:00:25;;;;;;;203.87;97.73;;;;;;;3.55;66.64;101741.97;4862575;28;101099;-75
2021/03/03 02:02:51;;;;;;;204.13;96.77;;;;;;;3.66;66.39;101738.66;4879102;28;97152;-75
2021/03/03 02:05:16;;;;;;;195.27;96.60;;;;;;;3.63;66.33;101747.25;4880106;28;96892;-75
2021/03/03 02:07:42;;;;;;;195.20;97.93;;;;;;;3.59;66.56;101733.34;4894093;28;101805;-75
2021/03/03 02:10:17;;;;;;;200.00;99.37;;;;;;;3.66;66.86;101738.66;4891136;28;97939;-75
2021/03/03 02:13:09;;;;;;;188.10;92.97;;;;;;;3.61;66.40;101730.81;4851604;28;97299;-75
2021/03/03 02:15:37;;;;;;;201.50;96.20;;;;;;;3.55;66.34;101725.47;4865013;28;97097;-75
2021/03/03 02:18:04;;;;;;;194.13;97.97;;;;;;;3.52;66.37;101718.53;4863444;28;101425;-76
2021/03/03 02:20:32;;;;;;;206.53;100.00;;;;;;;3.46;67.09;101718.44;4876407;28;97398;-80
2021/03/03 02:23:18;;;;;;;195.27;99.27;;;;;;;3.49;67.00;101715.88;4845410;28;97293;-75
2021/03/03 02:25:45;;;;;;;203.30;101.83;;;;;;;3.49;66.80;101720.19;4860577;28;97314;-76
2021/03/03 02:28:11;;;;;;;204.33;97.47;;;;;;;3.49;66.31;101713.28;4860674;28;97921;-75
2021/03/03 02:30:42;;;;;;;203.70;99.83;;;;;;;3.44;66.52;101701.94;4859841;28;100994;-75
2021/03/03 02:33:09;;;;;;;206.33;102.23;;;;;;;3.41;66.41;101699.31;4860405;28;96817;-75
2021/03/03 02:35:35;;;;;;;208.83;100.07;;;;;;;3.38;66.67;101697.53;4876024;28;96795;-76
2021/03/03 02:38:03;;;;;;;208.13;101.07;;;;;;;3.25;66.78;101699.88;4860575;28;98231;-75
2021/03/03 02:40:30;;;;;;;206.27;99.87;;;;;;;3.31;66.48;101694.78;4860556;28;97635;-82
2021/03/03 02:42:57;;;;;;;203.13;100.83;;;;;;;3.13;66.70;101698.78;4844914;28;96792;-75
2021/03/03 02:45:23;;;;;;;202.87;97.80;;;;;;;3.19;66.56;101690.25;4876662;28;97200;-76
2021/03/03 02:47:49;;;;;;;205.10;101.03;;;;;;;3.12;66.66;101691.00;4859406;28;101570;-75
2021/03/03 02:50:15;;;;;;;195.77;100.03;;;;;;;3.22;66.58;101697.22;4876093;28;100335;-75
2021/03/03 02:52:55;;;;;;;203.00;98.47;;;;;;;3.15;67.03;101694.53;4859462;28;97097;-75
2021/03/03 02:55:28;;;;;;;200.70;98.20;;;;;;;3.23;66.77;101693.75;4876815;28;96784;-75
2021/03/03 02:57:58;;;;;;;200.40;97.27;;;;;;;3.31;66.47;101689.59;4858955;28;102134;-77
2021/03/03 03:00:30;;;;;;;205.40;98.53;;;;;;;3.31;66.63;101692.19;4860292;28;97833;-76
2021/03/03 03:03:11;;;;;;;190.13;96.90;;;;;;;3.20;66.06;101685.94;4860456;28;96624;-76
2021/03/03 03:05:39;;;;;;;198.93;96.90;;;;;;;3.20;66.64;101685.94;4875406;28;97128;-76
2021/03/03 03:08:06;;;;;;;198.40;97.13;;;;;;;3.25;66.29;101685.16;4844101;28;100611;-75
2021/03/03 03:10:32;;;;;;;195.10;94.27;;;;;;;3.20;66.42;101680.75;4845279;29;102550;-81
2021/03/03 03:12:59;;;;;;;203.20;98.50;;;;;;;3.12;66.88;101681.50;4885198;28;97199;-76
2021/03/03 03:15:29;;;;;;;190.03;95.83;;;;;;;3.14;66.58;101679.81;4895256;28;97206;-75
2021/03/03 03:17:59;;;;;;;186.13;94.77;;;;;;;3.13;66.79;101671.97;4863076;28;101132;-75
2021/03/03 03:20:25;;;;;;;196.90;94.17;;;;;;;3.12;66.57;101662.47;4860087;28;101002;-75
2021/03/03 03:22:52;;;;;;;190.50;94.53;;;;;;;3.13;67.36;101672.84;4858893;28;97027;-75
2021/03/03 03:25:18;;;;;;;190.00;92.13;;;;;;;3.10;67.35;101667.59;4844574;28;96954;-75
2021/03/03 03:27:44;;;;;;;180.33;91.17;;;;;;;2.94;67.25;101663.00;4858681;28;100985;-75
2021/03/03 03:30:15;;;;;;;183.50;93.33;;;;;;;2.99;67.05;101665.66;4859794;28;101011;-75
2021/03/03 03:32:41;;;;;;;181.60;90.60;;;;;;;2.94;67.02;101665.59;4859788;28;97066;-75
2021/03/03 03:35:09;;;;;;;186.67;92.83;;;;;;;3.04;67.08;101670.09;4875893;28;97027;-75
2021/03/03 03:37:35;;;;;;;180.80;90.13;;;;;;;3.07;67.21;101677.94;4858500;28;101720;-76
2021/03/03 03:40:02;;;;;;;181.90;87.43;;;;;;;2.94;67.11;101676.84;4857222;28;101452;-75
2021/03/03 03:42:29;;;;;;;189.73;92.17;;;;;;;3.00;67.21;101676.09;4859820;28;97117;-75
2021/03/03 03:44:55;;;;;;;196.20;92.57;;;;;;;2.95;66.86;101677.72;4859201;28;96925;-76
2021/03/03 03:47:21;;;;;;;184.27;91.17;;;;;;;2.75;67.19;101674.72;4858957;28;100764;-76
2021/03/03 03:49:47;;;;;;;199.27;90.97;;;;;;;2.85;67.43;101686.16;4843236;28;100772;-76
2021/03/03 03:52:16;;;;;;;189.23;91.03;;;;;;;2.89;66.78;101686.25;4860023;28;97326;-75
2021/03/03 03:54:50;;;;;;;192.87;92.47;;;;;;;2.91;66.76;101683.69;4859064;28;97602;-75
2021/03/03 03:57:16;;;;;;;182.60;91.00;;;;;;;2.92;66.89;101691.50;4875164;28;97656;-75
2021/03/03 03:59:42;;;;;;;189.27;91.37;;;;;;;2.81;67.19;101682.63;4858981;28;97779;-75
2021/03/03 04:02:08;;;;;;;185.00;91.23;;;;;;;2.89;67.44;101680.19;4859539;28;97153;-75
2021/03/03 04:04:33;;;;;;;185.17;92.10;;;;;;;2.85;67.41;101679.25;4859561;28;97099;-80
2021/03/03 04:06:59;;;;;;;195.37;91.13;;;;;;;2.88;67.38;101671.53;4858720;28;101477;-76
2021/03/03 04:09:25;;;;;;;186.60;89.10;;;;;;;2.78;67.82;101667.00;4875503;28;97985;-76
2021/03/03 04:11:50;;;;;;;176.40;89.53;;;;;;;2.80;67.41;101667.91;4858299;28;96858;-76
2021/03/03 04:14:16;;;;;;;186.90;87.63;;;;;;;2.74;67.76;101666.94;4843273;28;96891;-76
2021/03/03 04:16:41;;;;;;;183.23;89.93;;;;;;;2.74;67.28;101666.94;4842644;28;101044;-76
2021/03/03 04:19:07;;;;;;;176.90;84.83;;;;;;;2.86;67.26;101661.97;4874317;28;97297;-76
2021/03/03 04:21:32;;;;;;;176.87;86.20;;;;;;;2.80;67.16;101670.50;4876380;28;96938;-80
2021/03/03 04:23:58;;;;;;;185.97;88.53;;;;;;;2.77;66.75;101667.88;4876009;28;96809;-75
2021/03/03 04:26:23;;;;;;;182.90;85.73;;;;;;;2.72;67.15;101667.75;4843321;28;101382;-76
2021/03/03 04:28:49;;;;;;;186.40;88.50;;;;;;;2.66;67.53;101667.66;4858140;28;98809;-75
2021/03/03 04:31:15;;;;;;;195.47;85.47;;;;;;;2.79;67.18;101673.94;4860490;28;96633;-75
2021/03/03 04:33:40;;;;;;;195.07;88.97;;;;;;;2.74;67.38;101664.34;4847322;28;96872;-76
2021/03/03 04:36:06;;;;;;;203.43;92.13;;;;;;;2.69;67.02;101657.31;4872630;28;98240;-76
2021/03/03 04:38:32;;;;;;;206.23;96.83;;;;;;;2.66;67.46;101662.47;4858448;28;101033;-80
2021/03/03 04:40:57;;;;;;;217.17;93.77;;;;;;;2.57;68.16;101658.81;4858820;28;96774;-75
2021/03/03 04:43:23;;;;;;;219.57;93.77;;;;;;;2.56;68.45;101649.28;4859006;28;97078;-75
2021/03/03 04:45:49;;;;;;;245.43;95.97;;;;;;;2.51;68.38;101646.59;4857613;28;101035;-75
2021/03/03 04:48:14;;;;;;;219.07;91.90;;;;;;;2.59;67.77;101654.50;4858011;28;100907;-75
2021/03/03 04:50:40;;;;;;;201.20;89.03;;;;;;;2.58;68.43;101651.06;4857612;28;96692;-75
2021/03/03 04:53:05;;;;;;;188.13;86.43;;;;;;;2.55;68.46;101648.41;4859316;28;96682;-75
2021/03/03 04:55:31;;;;;;;168.97;82.87;;;;;;;2.51;68.98;101656.09;4859033;28;97551;-79
2021/03/03 04:57:57;;;;;;;170.93;79.43;;;;;;;2.40;69.10;101656.75;4857931;28;98102;-75
2021/03/03 05:00:23;;;;;;;179.90;85.00;;;;;;;2.33;69.15;101647.13;4874331;28;96911;-77
2021/03/03 05:02:48;;;;;;;187.87;91.60;;;;;;;2.36;68.77;101646.31;4857433;28;97291;-76
2021/03/03 05:05:14;;;;;;;197.33;96.20;;;;;;;2.41;68.24;101644.66;4858151;28;99735;-76
2021/03/03 05:07:40;;;;;;;186.37;88.53;;;;;;;2.32;68.83;101641.88;4873082;28;98213;-75
2021/03/03 05:10:06;;;;;;;193.23;89.63;;;;;;;2.23;68.84;101639.97;4858614;28;97200;-75
2021/03/03 05:12:32;;;;;;;189.40;91.13;;;;;;;2.28;69.05;101637.50;4876047;28;97308;-78
2021/03/03 05:14:57;;;;;;;182.00;87.20;;;;;;;2.24;68.83;101627.06;4873170;28;98809;-76
2021/03/03 05:17:23;;;;;;;183.70;86.70;;;;;;;2.32;68.75;101628.94;4858114;28;100728;-75
2021/03/03 05:19:48;;;;;;;178.80;84.70;;;;;;;2.33;68.66;101625.47;4842130;28;97236;-76
2021/03/03 05:22:14;;;;;;;174.97;81.70;;;;;;;2.32;68.75;101619.44;4842932;28;97301;-75
2021/03/03 05:24:40;;;;;;;168.67;80.77;;;;;;;2.36;68.74;101634.22;4856446;28;100789;-76
2021/03/03 05:27:05;;;;;;;174.07;82.70;;;;;;;2.19;68.83;101626.09;4873744;28;97362;-76
2021/03/03 05:29:31;;;;;;;166.70;81.30;;;;;;;2.20;68.88;101622.63;4842952;28;96845;-75
2021/03/03 05:31:58;;;;;;;161.63;79.30;;;;;;;2.14;68.70;101616.47;4873961;28;97251;-76
2021/03/03 05:34:24;;;;;;;156.53;79.90;;;;;;;2.12;68.97;101621.59;4842572;28;100944;-77
2021/03/03 05:36:49;;;;;;;163.77;79.23;;;;;;;2.12;68.83;101623.31;4860650;28;97242;-76
2021/03/03 05:39:15;;;;;;;184.03;83.83;;;;;;;2.20;68.35;101622.63;4860961;28;96710;-75
2021/03/03 05:41:40;;;;;;;181.23;83.77;;;;;;;2.22;68.01;101620.09;4880904;28;96929;-76
2021/03/03 05:44:08;;;;;;;166.63;81.40;;;;;;;2.19;68.08;101618.31;4862298;28;101315;-75
2021/03/03 05:46:37;;;;;;;167.30;82.87;;;;;;;2.23;67.80;101616.66;4861040;28;101147;-82
2021/03/03 05:49:04;;;;;;;177.67;84.80;;;;;;;2.35;67.54;101622.06;4876820;28;97491;-77
2021/03/03 05:51:31;;;;;;;203.57;102.10;;;;;;;2.21;67.96;101614.03;4845276;28;97190;-75
2021/03/03 05:53:58;;;;;;;181.50;87.87;;;;;;;2.26;67.62;101617.59;4853551;28;101371;-74
2021/03/03 05:56:25;;;;;;;182.80;83.33;;;;;;;2.33;67.62;101616.00;4857720;28;97884;-75
2021/03/03 05:58:51;;;;;;;168.40;83.17;;;;;;;2.42;67.02;101615.31;4854830;28;97134;-75
2021/03/03 06:01:17;;;;;;;169.67;84.37;;;;;;;2.36;67.34;101610.03;4868855;28;97240;-76
2021/03/03 06:03:43;;;;;;;187.60;88.93;;;;;;;2.39;66.83;101610.09;4859874;28;101428;-76
2021/03/03 06:06:09;;;;;;;195.73;91.87;;;;;;;2.37;67.05;101611.75;4856163;28;100805;-75
2021/03/03 06:08:35;;;;;;;175.10;84.87;;;;;;;2.45;66.38;101610.19;4863804;28;96877;-81
2021/03/03 06:11:02;;;;;;;179.70;82.30;;;;;;;2.53;66.47;101608.63;4852501;28;96853;-75
2021/03/03 06:13:28;;;;;;;183.17;85.63;;;;;;;2.49;66.48;101604.22;4853530;28;98106;-76
2021/03/03 06:15:54;;;;;;;188.73;84.40;;;;;;;2.45;66.82;101603.28;4879174;28;101551;-76
2021/03/03 06:18:21;;;;;;;167.33;81.93;;;;;;;2.47;66.69;101596.44;4847899;28;97905;-78
2021/03/03 06:20:48;;;;;;;180.20;76.70;;;;;;;2.48;67.32;101592.13;4864866;28;96853;-75
2021/03/03 06:23:28;;;;;;;150.90;77.33;;;;;;;2.56;67.01;101587.94;4840894;28;101057;-76
2021/03/03 06:25:56;;;;;;;160.30;76.60;;;;;;;2.66;66.79;101594.19;4871069;28;102360;-76
2021/03/03 06:28:31;;;;;;;151.23;75.57;;;;;;;2.90;66.25;101591.16;4892986;28;97278;-77
2021/03/03 06:30:57;;;;;;;163.93;77.07;;;;;;;2.86;65.98;101590.22;4894199;28;97529;-76
2021/03/03 06:33:26;;;;;;;163.70;82.73;;;;;;;2.81;66.74;101588.41;4861006;28;101709;-77
2021/03/03 06:35:52;;;;;;;170.43;84.00;;;;;;;2.89;66.08;101579.91;4875504;28;101208;-77
2021/03/03 06:38:26;;;;;;;175.37;88.47;;;;;;;3.17;65.17;101583.84;4876898;28;97169;-77
2021/03/03 06:40:57;;;;;;;187.57;90.83;;;;;;;3.42;64.50;101578.16;4860697;28;97314;-76
2021/03/03 06:43:27;;;;;;;166.50;84.00;;;;;;;3.69;64.23;101578.53;4876998;28;101659;-76
2021/03/03 06:45:53;;;;;;;154.73;79.90;;;;;;;3.79;63.73;101571.78;4881044;28;97342;-76
2021/03/03 06:48:41;;;;;;;161.53;79.20;;;;;;;3.85;63.30;101572.72;4839621;28;97454;-76
2021/03/03 06:51:34;;;;;;;161.47;79.47;;;;;;;4.01;63.12;101571.19;4844995;29;96792;-76
2021/03/03 06:54:03;;;;;;;153.17;78.57;;;;;;;4.15;62.48;101567.91;4872952;28;98083;-75
2021/03/03 06:56:42;;;;;;;156.90;78.97;;;;;;;4.48;62.42;101572.59;4868788;28;98360;-75
2021/03/03 06:59:20;;;;;;;160.87;78.40;;;;;;;4.86;61.79;101579.91;4876543;28;97167;-76
2021/03/03 07:02:00;;;;;;;167.47;81.27;;;;;;;4.44;61.87;101578.63;4891851;28;96969;-76
2021/03/03 07:04:30;;;;;;;164.07;82.27;;;;;;;4.38;62.38;101582.03;4857158;28;101875;-76
2021/03/03 07:07:01;;;;;;;173.67;82.50;;;;;;;4.71;62.03;101581.53;4857232;28;101217;-75
2021/03/03 07:09:37;;;;;;;164.57;78.23;;;;;;;5.29;60.69;101585.50;4858092;28;97144;-76
2021/03/03 07:12:05;;;;;;;166.87;74.87;;;;;;;5.47;60.54;101588.28;4845794;28;97443;-76
2021/03/03 07:14:31;;;;;;;153.23;71.07;;;;;;;6.07;nan;101583.41;4857727;28;102007;-76
2021/03/03 07:17:03;;;;;;;134.40;64.57;;;;;;;6.48;58.40;101575.75;4841204;28;101418;-75
2021/03/03 07:19:29;;;;;;;130.53;65.13;;;;;;;6.92;57.19;101579.31;4841937;28;96970;-75
2021/03/03 07:21:55;;;;;;;117.57;61.67;;;;;;;7.66;55.84;101569.69;4865296;28;97503;-75
2021/03/03 07:24:22;;;;;;;120.87;60.47;;;;;;;8.52;54.20;101572.88;4836998;28;101422;-75
2021/03/03 07:26:47;;;;;;;115.43;60.97;;;;;;;9.89;51.62;101572.59;4841612;28;101336;-75
2021/03/03 07:29:13;;;;;;;114.72;61.63;;;;;;;12.21;46.01;101568.91;4865066;28;97288;-75
2021/03/03 07:31:40;;;;;;;123.43;64.85;;;;;;;13.72;42.93;101567.03;4844261;28;96857;-78
2021/03/03 07:34:09;;;;;;;127.65;66.53;;;;;;;15.21;40.36;101554.59;4859729;28;97989;-76
2021/03/03 07:36:36;;;;;;;130.43;66.05;;;;;;;16.28;38.50;101556.06;4843843;28;101395;-76
2021/03/03 07:39:04;;;;;;;110.80;62.10;;;;;;;17.26;37.13;101551.28;4860090;28;96796;-76
2021/03/03 07:41:33;;;;;;;118.38;63.13;;;;;;;17.64;36.33;101556.72;4843937;28;96851;-76
2021/03/03 07:44:02;;;;;;;115.97;63.35;;;;;;;18.72;35.20;101556.16;4843459;28;101525;-74
2021/03/03 07:46:29;;;;;;;108.25;62.33;;;;;;;19.32;34.15;101561.22;4855864;28;100744;-75
2021/03/03 07:48:55;;;;;;;108.28;61.53;;;;;;;19.33;33.82;101560.28;4855219;28;97329;-74
2021/03/03 07:51:21;;;;;;;100.60;58.75;;;;;;;19.96;32.94;101556.16;4856501;28;96932;-75
2021/03/03 07:53:48;;;;;;;100.65;60.28;;;;;;;21.05;31.99;101550.06;4864836;28;101396;-75
2021/03/03 07:56:15;;;;;;;96.85;59.58;;;;;;;21.43;31.50;101545.13;4857281;28;97879;-74
2021/03/03 07:58:41;;;;;;;98.72;59.30;;;;;;;21.09;31.44;101536.47;4835165;28;96913;-79
2021/03/03 08:01:09;;;;;;;96.90;57.83;;;;;;;22.21;30.79;101524.28;4874505;28;97583;-75
2021/03/03 08:03:42;;;;;;;100.40;58.85;;;;;;;22.76;30.06;101522.50;4849100;28;101512;-75
2021/03/03 08:06:31;;;;;;;95.47;58.58;;;;;;;22.94;29.75;101523.09;4867632;28;102055;-76
2021/03/03 08:09:06;;;;;;;100.35;60.92;;;;;;;23.13;29.39;101525.44;4836016;28;97364;-75
2021/03/03 08:11:36;;;;;;;96.18;60.70;;;;;;;23.69;28.75;101523.31;4872661;28;97589;-75
2021/03/03 08:14:02;;;;;;;91.50;57.53;;;;;;;23.32;29.03;101519.66;4855457;28;101234;-74
2021/03/03 08:16:28;;;;;;;95.15;63.00;;;;;;;23.69;29.03;101520.66;4854136;28;100927;-73
2021/03/03 08:18:56;;;;;;;97.00;61.72;;;;;;;24.33;28.57;101518.72;4866276;28;97214;-75
2021/03/03 08:21:22;;;;;;;93.93;61.60;;;;;;;25.28;27.49;101506.28;4853743;28;96972;-74
2021/03/03 08:24:01;;;;;;;94.45;62.40;;;;;;;25.53;27.60;101504.34;4864974;28;97617;-75
2021/03/03 08:26:29;;;;;;;96.88;61.40;;;;;;;26.31;27.06;101494.56;4872265;28;98039;-75
2021/03/03 08:29:10;;;;;;;90.15;56.20;;;;;;;26.76;25.70;101494.41;4870511;28;97373;-74
2021/03/03 08:31:39;;;;;;;100.25;62.58;;;;;;;27.24;25.91;101493.97;4871442;28;97214;-76
2021/03/03 08:34:07;;;;;;;78.00;54.15;;;;;;;27.45;24.98;101497.50;4862889;28;101471;-75
2021/03/03 08:36:33;;;;;;;75.70;50.97;;;;;;;27.63;25.04;101489.63;4856982;28;101809;-76
2021/03/03 08:38:58;;;;;;;76.85;51.65;;;;;;;27.30;25.54;101488.91;4873983;28;96829;-75
2021/03/03 08:41:30;;;;;;;88.68;54.53;;;;;;;27.71;25.21;101479.03;4893366;28;97405;-75
2021/03/03 08:44:09;;;;;;;70.70;47.88;;;;;;;28.23;24.48;101483.50;4890280;28;98020;-75
2021/03/03 08:46:41;;;;;;;71.20;47.53;;;;;;;27.13;25.76;101486.78;4874147;28;101392;-75
2021/03/03 08:49:07;;;;;;;74.20;49.22;;;;;;;26.55;26.40;101481.78;4874699;28;97537;-75
2021/03/03 08:51:33;;;;;;;70.05;44.65;;;;;;;24.95;27.49;101480.13;4877420;28;97182;-75
2021/03/03 08:54:03;;;;;;;66.72;44.08;;;;;;;22.64;30.59;101486.72;4871002;28;97479;-75
2021/03/03 08:56:39;;;;;;;73.20;44.80;;;;;;;21.25;32.38;101485.66;4871496;28;97995;-75
2021/03/03 08:59:11;;;;;;;72.85;47.38;;;;;;;20.21;34.16;101486.34;4855743;28;96759;-75
2021/03/03 09:02:05;;;;;;;75.38;46.95;;;;;;;20.37;34.48;101481.91;4841834;28;97315;-75
2021/03/03 09:04:33;;;;;;;61.75;43.03;;;;;;;20.46;34.88;101475.19;4859071;28;101837;-75
2021/03/03 09:07:06;;;;;;;72.15;42.97;;;;;;;20.20;34.85;101471.31;4891144;28;97914;-74
2021/03/03 09:09:49;;;;;;;73.75;41.65;;;;;;;20.33;34.61;101469.66;4891757;28;97040;-74
2021/03/03 09:12:25;;;;;;;70.07;42.83;;;;;;;19.44;35.88;101470.06;4859825;28;96924;-74
2021/03/03 09:14:52;;;;;;;72.95;42.38;;;;;;;19.89;35.79;101470.34;4856797;28;102133;-74
2021/03/03 09:17:26;;;;;;;68.18;42.22;;;;;;;19.29;36.03;101467.34;4841961;28;101567;-73
2021/03/03 09:19:57;;;;;;;65.75;40.05;;;;;;;18.78;36.92;101476.09;4858310;28;97360;-82
2021/03/03 09:22:24;;;;;;;62.05;37.03;;;;;;;18.93;36.98;101476.28;4858540;28;97490;-81
2021/03/03 09:24:55;;;;;;;60.20;36.78;;;;;;;18.78;37.68;101470.78;4872831;28;101330;-80
2021/03/03 09:27:22;;;;;;;56.85;36.38;;;;;;;17.68;38.75;101460.06;4871680;28;97889;-80
2021/03/03 09:29:49;;;;;;;61.42;38.75;;;;;;;17.45;39.55;101447.81;4874292;28;97157;-82
2021/03/03 09:32:20;;;;;;;88.15;46.05;;;;;;;17.80;39.31;101440.09;4855793;28;97155;-81
2021/03/03 09:34:59;;;;;;;84.70;46.40;;;;;;;17.65;39.66;101437.16;4880447;28;97491;-81
2021/03/03 09:37:24;;;;;;;62.17;40.33;;;;;;;18.13;38.86;101442.97;4876676;28;97619;-80
2021/03/03 09:39:59;;;;;;;65.53;40.00;;;;;;;17.84;39.02;101441.69;4877481;28;97311;-82
2021/03/03 09:42:26;;;;;;;67.10;38.67;;;;;;;17.72;39.58;101435.13;4877717;28;97314;-82
2021/03/03 09:44:53;;;;;;;66.57;39.70;;;;;;;17.74;39.63;101438.53;4868803;28;97270;-78
2021/03/03 09:47:39;;;;;;;66.18;37.75;;;;;;;17.10;40.53;101433.47;4865778;28;98181;-79
2021/03/03 09:50:10;;;;;;;61.28;37.47;;;;;;;16.97;40.48;101427.84;4851544;28;96856;-77
2021/03/03 09:52:40;;;;;;;53.88;34.65;;;;;;;17.58;39.98;101434.88;4874760;28;97114;-75
2021/03/03 09:55:08;;;;;;;53.33;34.05;;;;;;;17.35;39.90;101439.44;4858255;28;101357;-75
2021/03/03 09:57:34;;;;;;;47.53;30.63;;;;;;;16.60;40.40;101433.81;4876089;28;101205;-76
2021/03/03 10:00:00;;;;;;;48.85;29.00;;;;;;;16.81;39.75;101429.41;4875443;28;97014;-75
2021/03/03 10:02:28;;;;;;;51.00;31.48;;;;;;;16.95;39.58;101424.38;4879795;28;96900;-75
2021/03/03 10:04:55;;;;;;;49.15;28.75;;;;;;;17.00;39.62;101422.41;4856882;28;101383;-76
2021/03/03 10:07:22;;;;;;;49.75;28.17;;;;;;;17.13;39.30;101414.75;4851483;28;97494;-75
2021/03/03 10:09:53;;;;;;;43.70;27.92;;;;;;;16.15;40.15;101410.94;4849772;28;97335;-75
2021/03/03 10:12:22;;;;;;;42.05;26.52;;;;;;;16.35;40.27;101408.34;4858088;28;97243;-75
2021/03/03 10:14:56;;;;;;;49.42;28.15;;;;;;;16.52;40.27;101404.97;4846081;28;101074;-75
2021/03/03 10:17:31;;;;;;;43.70;28.00;;;;;;;16.62;39.97;101402.81;4829010;28;101459;-75
2021/03/03 10:19:57;;;;;;;43.85;28.60;;;;;;;16.70;40.09;101411.31;4857646;28;97451;-75
2021/03/03 10:22:23;;;;;;;49.35;30.05;;;;;;;16.59;40.56;101409.09;4857852;28;97196;-76
2021/03/03 10:25:05;;;;;;;43.33;28.20;;;;;;;16.50;40.50;101401.53;4858430;28;99519;-75
2021/03/03 10:27:39;;;;;;;45.63;27.05;;;;;;;16.80;40.07;101391.44;4843563;28;101377;-76
2021/03/03 10:30:25;;;;;;;60.70;30.95;;;;;;;16.86;40.61;101396.47;4859102;28;97419;-75
2021/03/03 10:32:53;;;;;;;47.75;30.92;;;;;;;16.43;41.00;101398.25;4877709;28;96947;-75
2021/03/03 10:35:20;;;;;;;48.92;32.38;;;;;;;16.39;41.30;101399.31;4875913;28;98429;-75
2021/03/03 10:37:45;;;;;;;49.72;30.83;;;;;;;16.28;41.26;101396.25;4859881;28;101554;-76
2021/03/03 10:40:17;;;;;;;60.80;36.50;;;;;;;16.21;42.04;101394.78;4862152;28;98580;-76
2021/03/03 10:42:46;;;;;;;54.90;34.17;;;;;;;16.25;41.75;101394.56;4872698;28;97484;-75
2021/03/03 10:45:17;;;;;;;62.80;35.75;;;;;;;16.05;42.44;101381.28;4882309;28;98424;-76
2021/03/03 10:47:45;;;;;;;65.50;35.13;;;;;;;16.21;42.67;101374.44;4866818;28;97558;-76
2021/03/03 10:50:12;;;;;;;63.05;34.15;;;;;;;16.25;42.74;101380.47;4852398;28;97355;-75
2021/03/03 10:52:38;;;;;;;57.60;34.95;;;;;;;16.13;43.04;101368.59;4865250;28;97226;-76
2021/03/03 10:55:20;;;;;;;59.10;35.70;;;;;;;16.13;42.77;101365.94;4864123;28;98210;-78
2021/03/03 10:58:08;;;;;;;56.55;33.78;;;;;;;16.06;42.91;101361.84;4850758;28;101225;-76
2021/03/03 11:00:54;;;;;;;50.83;29.95;;;;;;;15.75;43.15;101351.59;4869727;28;97112;-75
2021/03/03 11:03:19;;;;;;;55.05;32.35;;;;;;;15.89;43.19;101356.34;4852044;28;97182;-75
2021/03/03 11:05:58;;;;;;;48.33;31.15;;;;;;;15.79;43.64;101351.41;4863448;28;98186;-78
2021/03/03 11:08:25;;;;;;;53.05;31.02;;;;;;;15.75;43.62;101343.66;4842333;28;100834;-75
2021/03/03 11:10:51;;;;;;;50.08;29.63;;;;;;;15.66;43.99;101344.84;4852590;28;96854;-75
2021/03/03 11:13:17;;;;;;;52.92;29.15;;;;;;;15.62;44.08;101337.97;4873976;28;97266;-76